• Join FlightAware (Why Join?)
  • Login
  • US Flag 
06:56PM EDT


 

Airport Tracker/Info


-or-


 

Live Flight TrackerFlight Track Log ✈ N878SM ✈ 09-May-2013 ✈ KCLE - KPBI

Flight Track Log - Related Links

Times and Time Zones

All times are in EDT time to prevent confusion due to time zone crossing. See the N878SM flight status page for this flight to view local times or setup timezone preferences in your user account.

Time Position Orientation Groundspeed Altitude Reporting Facility
EDT Latitude Longitude Course Direction KTS MPH feet Rate Location/Type
07:54AM 41.3880 -81.8710 196° South 200 230 2,500  Level FlightAware
07:54AM 41.3590 -81.8800 193° South 246 283 3,400 2,460 Climbing FlightAware
07:55AM 41.3280 -81.8910 195° South 268 308 4,800 3,600 Climbing FlightAware
07:55AM 41.2930 -81.9030 194° South 273 314 6,700 3,900 Climbing FlightAware
07:56AM 41.2620 -81.9150 196° South 280 322 8,400 3,660 Climbing FlightAware
07:57AM 41.2040 -81.9340 194° South 298 343 11,000 2,580 Climbing FlightAware
07:57AM 41.1450 -81.9550 195° South 358 412 12,100 2,460 Climbing FlightAware
07:58AM 41.0690 -81.9820 195° South 371 427 14,500 3,000 Climbing FlightAware
07:59AM 41.0000 -82.0050 194° South 387 445 16,400 2,700 Climbing FlightAware
07:59AM 40.9140 -82.0380 196° South 401 461 18,600 2,520 Climbing FlightAware
08:00AM 40.8660 -82.0710 207° Southwest 408 470 19,800 2,460 Climbing FlightAware
08:01AM 40.7970 -82.1210 209° Southwest 419 482 21,500 2,460 Climbing FlightAware
08:01AM 40.7270 -82.1730 209° Southwest 429 494 23,100 2,280 Climbing FlightAware
08:02AM 40.6560 -82.2240 209° Southwest 437 503 24,600 2,160 Climbing FlightAware
08:03AM 40.5890 -82.2730 209° Southwest 444 511 26,000 2,100 Climbing FlightAware
08:03AM 40.5160 -82.3260 209° Southwest 453 521 27,400 2,400 Climbing FlightAware
08:04AM 40.4410 -82.3800 209° Southwest 450 518 29,200 2,760 Climbing FlightAware
08:05AM 40.3700 -82.4320 209° Southwest 442 509 31,100 2,580 Climbing FlightAware
08:05AM 40.2980 -82.4830 208° Southwest 438 504 32,700 2,220 Climbing FlightAware
08:06AM 40.2160 -82.5380 207° Southwest 443 510 34,300 1,620 Climbing FlightAware
08:07AM 40.1350 -82.5670 195° South 456 525 35,000 540 Climbing FlightAware
08:07AM 40.0670 -82.5740 185° South 463 533 35,000  Level FlightAware
08:08AM 39.9560 -82.5620 175° South 463 533 35,000  Level FlightAware
08:09AM 39.8700 -82.5500 174° South 464 534 35,000 960 Level FlightAware
08:10AM 39.7710 -82.5370 174° South 460 529 36,400 1,740 Climbing FlightAware
08:10AM 39.6880 -82.5250 174° South 460 529 37,500 1,380 Climbing FlightAware
08:11AM 39.6010 -82.5130 174° South 467 537 38,300 1,620 Climbing FlightAware
08:12AM 39.5080 -82.5010 174° South 455 524 39,800 1,860 Climbing FlightAware
08:12AM 39.4260 -82.4890 174° South 445 512 41,000 840 Climbing FlightAware
08:13AM 39.3290 -82.4760 174° South 460 529 41,000  Level FlightAware
08:14AM 39.2460 -82.4650 174° South 470 541 41,000  Level FlightAware
08:14AM 39.1780 -82.4560 174° South 474 545 41,000  Level FlightAware
08:15AM 39.0900 -82.4440 174° South 476 548 41,000  Level FlightAware
08:16AM 38.9960 -82.4320 174° South 475 547 41,000  Level FlightAware
08:16AM 38.9070 -82.4200 174° South 472 543 41,000  Level FlightAware
08:17AM 38.8100 -82.4070 174° South 470 541 41,000  Level FlightAware
08:18AM 38.7220 -82.3950 174° South 470 541 41,000  Level FlightAware
08:18AM 38.6440 -82.3850 174° South 476 548 41,000  Level FlightAware
08:19AM 38.5967 -82.3784 174° South 482 555 41,000  Level FlightAware ADS-B
08:20AM 38.4686 -82.3615 174° South 486 559 41,000  Level FlightAware ADS-B
08:20AM 38.3877 -82.3508 174° South 486 559 41,000  Level FlightAware ADS-B
08:21AM 38.3200 -82.3419 174° South 488 562 41,000  Level FlightAware ADS-B
08:21AM 38.2409 -82.3315 174° South 489 563 41,000  Level FlightAware ADS-B
08:22AM 38.1650 -82.3220 174° South 489 563 41,000  Level FlightAware
08:23AM 38.0715 -82.3093 174° South 490 564 41,000  Level FlightAware ADS-B
08:23AM 38.0017 -82.3002 174° South 490 564 41,000  Level FlightAware ADS-B
08:24AM 37.9341 -82.2915 174° South 490 564 41,000  Level FlightAware ADS-B
08:24AM 37.8467 -82.2800 174° South 490 564 41,000  Level FlightAware ADS-B
08:25AM 37.7840 -82.2720 174° South 490 564 41,000  Level FlightAware
08:25AM 37.6930 -82.2600 174° South 490 564 41,000  Level FlightAware
08:26AM 37.5890 -82.2470 174° South 491 565 41,000  Level FlightAware
08:27AM 37.5070 -82.2360 174° South 491 565 41,000  Level FlightAware
08:27AM 37.4300 -82.2260 174° South 491 565 41,000  Level FlightAware
08:28AM 37.3540 -82.2160 174° South 491 565 41,000  Level FlightAware
08:29AM 37.2539 -82.2035 174° South 493 567 41,000  Level FlightAware ADS-B
08:29AM 37.1827 -82.1944 174° South 493 567 41,000  Level FlightAware ADS-B
08:30AM 37.1033 -82.1843 174° South 493 567 41,000  Level FlightAware ADS-B
08:30AM 37.0146 -82.1731 174° South 491 565 41,000  Level FlightAware ADS-B
08:31AM 36.9458 -82.1643 174° South 492 566 41,000  Level FlightAware ADS-B
08:31AM 36.8686 -82.1545 174° South 491 565 41,000  Level FlightAware ADS-B
08:32AM 36.7472 -82.1392 174° South 491 565 41,000  Level FlightAware ADS-B
08:33AM 36.6776 -82.1303 174° South 491 565 41,000  Level FlightAware ADS-B
08:34AM 36.5820 -82.1184 174° South 491 565 41,000  Level FlightAware ADS-B
08:34AM 36.5130 -82.1097 174° South 489 563 41,000  Level FlightAware ADS-B
08:35AM 36.4365 -82.1002 174° South 488 562 41,000  Level FlightAware ADS-B
08:35AM 36.3686 -82.0917 174° South 487 560 41,000  Level FlightAware ADS-B
08:36AM 36.2673 -82.0790 174° South 486 559 41,000  Level FlightAware ADS-B
08:37AM 36.1291 -82.0619 174° South 488 562 41,000  Level FlightAware ADS-B
08:37AM 36.0597 -82.0532 174° South 490 564 41,000  Level FlightAware ADS-B
08:38AM 35.9915 -82.0447 174° South 492 566 41,000  Level FlightAware ADS-B
08:38AM 35.9208 -82.0359 174° South 493 567 41,000  Level FlightAware ADS-B
08:39AM 35.8170 -82.0232 174° South 494 568 41,000  Level FlightAware ADS-B
08:40AM 35.7198 -82.0113 174° South 493 567 41,000  Level FlightAware ADS-B
08:40AM 35.6498 -82.0026 174° South 489 563 41,000  Level FlightAware ADS-B
08:41AM 35.5770 -81.9937 174° South 486 559 41,000  Level FlightAware ADS-B
08:41AM 35.5052 -81.9847 174° South 483 556 41,000  Level FlightAware ADS-B
08:42AM 35.4344 -81.9759 174° South 482 555 41,000  Level FlightAware ADS-B
08:43AM 35.3672 -81.9677 174° South 485 558 41,000  Level FlightAware ADS-B
08:43AM 35.2996 -81.9595 174° South 488 562 41,000  Level FlightAware ADS-B
08:44AM 35.2319 -81.9514 174° South 492 566 41,000  Level FlightAware ADS-B
08:44AM 35.1633 -81.9430 174° South 494 568 41,000  Level FlightAware ADS-B
08:45AM 35.0931 -81.9346 174° South 495 570 41,000  Level FlightAware ADS-B
08:45AM 35.0234 -81.9261 174° South 494 568 41,000  Level FlightAware ADS-B
08:46AM 34.9440 -81.9139 173° South 493 567 41,000  Level FlightAware ADS-B
08:46AM 34.8762 -81.9037 173° South 491 565 41,000  Level FlightAware ADS-B
08:47AM 34.8074 -81.8933 173° South 488 562 41,000  Level FlightAware ADS-B
08:47AM 34.7247 -81.8807 173° South 487 560 41,000  Level FlightAware ADS-B
08:48AM 34.6560 -81.8703 173° South 485 558 41,000  Level FlightAware ADS-B
08:48AM 34.5808 -81.8590 173° South 485 558 41,000  Level FlightAware ADS-B
08:49AM 34.5111 -81.8483 173° South 483 556 41,000  Level FlightAware ADS-B
08:49AM 34.4268 -81.8357 173° South 483 556 41,000  Level FlightAware ADS-B
08:50AM 34.3187 -81.8195 173° South 485 558 41,000  Level FlightAware ADS-B
08:51AM 34.1879 -81.8000 173° South 486 559 41,000  Level FlightAware ADS-B
08:52AM 34.0910 -81.7860 173° South 490 564 41,000  Level FlightAware
08:53AM 33.9870 -81.7700 173° South 491 565 41,000  Level FlightAware
08:53AM 33.8990 -81.7570 173° South 491 565 41,000 420 Level FlightAware
08:54AM 33.8070 -81.7440 173° South 485 558 41,600 840 Climbing FlightAware
08:55AM 33.7330 -81.7330 173° South 473 544 42,100 960 Climbing FlightAware
08:56AM 33.6260 -81.7170 173° South 461 531 43,000 600 Climbing FlightAware
08:56AM 33.5500 -81.7060 173° South 466 536 43,000  Level FlightAware
08:57AM 33.4420 -81.6900 173° South 468 539 43,000  Level FlightAware
08:58AM 33.3570 -81.6780 173° South 468 539 43,000  Level FlightAware
08:58AM 33.2620 -81.6640 173° South 468 539 43,000  Level FlightAware
08:59AM 33.1590 -81.6490 173° South 468 539 43,000  Level FlightAware
09:00AM 33.0310 -81.6310 173° South 468 539 43,000  Level FlightAware
09:01AM 32.9110 -81.6130 173° South 468 539 43,000  Level FlightAware
09:02AM 32.8440 -81.6030 173° South 469 540 43,000  Level FlightAware
09:03AM 32.7270 -81.5870 173° South 471 542 43,000  Level FlightAware
09:03AM 32.6320 -81.5730 173° South 471 542 43,000  Level FlightAware
09:04AM 32.5530 -81.5610 173° South 470 541 43,000  Level FlightAware
09:05AM 32.4630 -81.5470 173° South 471 542 43,000  Level FlightAware
09:07AM 32.2070 -81.5120 173° South 478 550 43,000  Level FlightAware
09:07AM 32.1030 -81.4980 173° South 480 552 43,000  Level FlightAware
09:09AM 31.8960 -81.4690 173° South 479 551 43,000  Level FlightAware
09:10AM 31.8150 -81.4570 173° South 479 551 43,000  Level FlightAware
09:10AM 31.7400 -81.4460 173° South 480 552 43,000  Level FlightAware
09:11AM 31.6190 -81.4300 174° South 482 555 43,000  Level FlightAware
09:12AM 31.5500 -81.4200 173° South 482 555 43,000  Level FlightAware
09:12AM 31.4740 -81.4090 173° South 482 555 43,000  Level FlightAware
09:13AM 31.3660 -81.3940 173° South 483 556 43,000  Level FlightAware
09:14AM 31.2900 -81.3830 173° South 483 556 43,000  Level FlightAware
09:14AM 31.1960 -81.3690 173° South 483 556 43,000  Level FlightAware
09:15AM 31.1210 -81.3580 173° South 483 556 43,000  Level FlightAware
09:16AM 31.0450 -81.3480 174° South 483 556 43,000  Level FlightAware
09:16AM 30.9700 -81.3370 173° South 483 556 43,000  Level FlightAware
09:17AM 30.8760 -81.3230 173° South 483 556 43,000  Level FlightAware
09:18AM 30.8000 -81.3130 174° South 483 556 43,000  Level FlightAware
09:19AM 30.7250 -81.3020 173° South 483 556 43,000  Level FlightAware
09:19AM 30.6490 -81.2910 173° South 483 556 43,000  Level FlightAware
09:20AM 30.5740 -81.2800 173° South 483 556 43,000  Level FlightAware
09:21AM 30.4800 -81.2670 173° South 483 556 43,000  Level FlightAware
09:21AM 30.4040 -81.2560 173° South 483 556 43,000  Level FlightAware
09:22AM 30.3290 -81.2450 173° South 483 556 43,000  Level FlightAware
09:23AM 30.0783 -81.0850 173° South 491 565 43,000 -420 Level Jacksonville Center
09:28AM 29.3750 -80.8740 173° South 478 550 40,700 -540 Descending FlightAware
09:29AM 29.2610 -80.8410 166° South 479 551 39,800 -1,020 Descending FlightAware
09:30AM 29.1490 -80.8080 166° South 478 550 39,000 -960 Descending FlightAware
09:31AM 29.0650 -80.7830 165° South 467 537 38,400 -1,020 Descending FlightAware
09:31AM 28.9640 -80.7540 166° South 484 557 37,600 -1,020 Descending FlightAware
09:32AM 28.8850 -80.7300 165° South 485 558 37,000 -1,140 Descending FlightAware
09:33AM 28.7910 -80.7030 166° South 478 550 36,100 -1,800 Descending FlightAware
09:33AM 28.6930 -80.6670 162° South 497 572 34,500 -2,340 Descending FlightAware
09:34AM 28.6110 -80.6110 149° Southeast 502 578 32,800 -2,520 Descending FlightAware
09:35AM 28.5300 -80.5530 148° Southeast 514 592 31,200 -2,400 Descending FlightAware
09:35AM 28.4400 -80.4890 148° Southeast 516 594 29,400 -2,520 Descending FlightAware
09:36AM 28.3580 -80.4300 148° Southeast 513 590 27,700 -2,520 Descending FlightAware
09:37AM 28.2660 -80.3650 148° Southeast 512 589 25,900 -2,400 Descending FlightAware
09:38AM 28.1890 -80.3100 148° Southeast 476 548 24,300 -2,280 Descending FlightAware
09:38AM 28.1320 -80.2690 148° Southeast 461 531 23,100 -2,220 Descending FlightAware
09:39AM 28.0320 -80.2030 150° Southeast 450 518 21,200 -2,100 Descending FlightAware
09:40AM 27.9560 -80.1870 169° South 406 467 20,000 -1,860 Descending FlightAware
09:40AM 27.8680 -80.1800 176° South 401 461 18,600 -1,860 Descending FlightAware
09:41AM 27.7960 -80.1750 176° South 420 483 17,400 -1,980 Descending FlightAware
09:42AM 27.7070 -80.1680 176° South 401 461 15,800 -1,980 Descending FlightAware
09:42AM 27.6330 -80.1620 176° South 405 466 14,600 -1,800 Descending FlightAware
09:43AM 27.5690 -80.1570 176° South 385 443 13,600 -1,200 Descending FlightAware
09:44AM 27.4700 -80.1480 175° South 354 407 12,700 -1,500 Descending FlightAware
09:45AM 27.4070 -80.1440 177° South 310 357 11,100 -1,440 Descending FlightAware
09:45AM 27.3550 -80.1390 175° South 294 338 10,800 -1,080 Descending FlightAware
09:46AM 27.3140 -80.1360 176° South 294 338 9,900 -1,020 Descending FlightAware
09:46AM 27.2820 -80.1330 175° South 294 338 9,900  Level FlightAware
09:47AM 27.2480 -80.1300 176° South 294 338 9,900  Level FlightAware
09:47AM 27.2130 -80.1260 174° South 294 338 9,900  Level FlightAware
09:48AM 27.1790 -80.1230 176° South 294 338 9,900 -180 Level FlightAware
09:49AM 27.1144 -80.0700 176° South 264 304 9,700 -900 Descending Miami Center
09:50AM 27.0400 -80.0422 162° South 269 310 8,300 -1,500 Descending Miami Center
09:51AM 26.9756 -80.0197 163° South 269 310 6,800 -1,500 Descending Miami Center
09:52AM 26.9053 -79.9944 162° South 269 310 5,400 -1,560 Descending Miami Center
09:53AM 26.8283 -79.9761 168° South 255 293 3,700 -1,320 Descending Miami Center
09:54AM 26.7697 -79.9769 181° South 226 260 2,800 -900 Descending Miami Center
09:56AM 26.6832 -80.0956 265° West  Level Estimated
10:03AM 26.6832 -80.0956 110° East  Level Estimated
10:04AM 26.6832 -80.0956 110° East  Level Estimated
10:05AM 26.6832 -80.0956 110° East  Level Estimated
10:06AM 26.6832 -80.0956 110° East  Level Estimated
10:07AM 26.6832 -80.0956 110° East  Level Estimated